Honey Creek, Missouri
Current Conditions -  °F | °C
As of 1:53 PM on Friday 31 Oct 2014 (Local Time) from KJEF Reporting Station
Clear Clear  
Wind Chill: 40°   Ceiling: Unl
Heat Index: 46°   Visibility: 10mi
Dew Point: 21°   Wind: 13mph
Humidity: 37%   Direction: 350°N
Pressure: 30.38"   Gusts: 24mph
Location:  38.5003°N, 92.1516°W
Report Text: KJEF 311853Z 35011G21KT 10SM CLR 08/M06 A3038 RMK AO2 SLP280 T00781061
Loading
Personal Weather Stations






























Interactive Weather Map
Tropical Storm Tracking
New forecast layout! Learn more

10-Day Weather Forecast

Advertisements
Track Severe Weather on mobile